Akron Canton Regional Airport Akron US
ICAO: KCAK
IATA: CAK
Category: Medium
Scheduled Services: Yes

Elevation: 1228 ft
TransAlt. 18000 ft.

Airport Communications:
APP/DEP:32.3
APP/DEP:118.6
ATIS:121.05
CLNC DEL:132.05
GND:121.7
ARNG OPS:41.1
CLEVELAND RDO:114.4
TWR:118.3
UNICOM:122.95

KCAK Zoom In..

If Map Doesn't Load, Click Here

Runways:

(A) RW 01 length 7601 ft width 150 ft
ILS 109.50 / hdg 9

(B) RW 05 length 8204 ft width 150 ft
ILS 108.30 / hdg 54

(C) RW 19 length 7601 ft width 150 ft
ILS 109.50 / hdg 189

(D) RW 23 length 8204 ft width 150 ft
ILS 108.30 / hdg 234

Location; KCAK
Day. 26 / Time. 10.51 Zulu
* Altimeter: 29.88
* Temperature: 22° c. 71.6°f.
* Wind from: 230° Speed 11 kn.
Dewpoint: 19° c.
Visibility: 10 Statute Miles.
Clouds: Broken 1300 ft.

KCAK 261051Z 23011KT 10SM BKN013 22/19 A2988 RMK AO2 SLP110 T02220194 $


Wind From 230°
Speed 11 kn.

 
 
jpsmedia.com for Web Design worldairports.se 2018   terms of use